AIC219 VOBL-VABB
Flight info
| Callsign | AIC219 |
|---|---|
| Flight time | 1h 15m |
| Altitude | 34000 |
| Route | VAGPU8A VAGPU Q8 AGELA MOLGO2A |
| Aircraft | B77W/H-SDE1E2E3FGHIJ2J3J4J5M1RWXY/LB1D1 |
Departure
| Time | 2026-05-08 12:29 |
|---|---|
| Airport | Kempegowda International Airport Bengaluru (VOBL) |
Arrival
| Time | 2026-05-08 13:44 |
|---|---|
| Airport | Chhatrapati Shivaji Maharaj International Airport (VABB) |
| Time | Latitude | Longitude | Altitude | Speed | Heading |
|---|---|---|---|---|---|
| 2026-05-08 12:01 | 13.19950 | 77.72023 | 2973 ft | 0 kts | 270° |
| 2026-05-08 12:17 | 13.19950 | 77.72028 | 2973 ft | 2 kts | 270° |
| 2026-05-08 12:17 | 13.19949 | 77.72045 | 2973 ft | 2 kts | 273° |
| 2026-05-08 12:17 | 13.19948 | 77.72062 | 2973 ft | 2 kts | 277° |
| 2026-05-08 12:17 | 13.19945 | 77.72079 | 2973 ft | 2 kts | 284° |
| 2026-05-08 12:18 | 13.19940 | 77.72095 | 2973 ft | 2 kts | 302° |
| 2026-05-08 12:18 | 13.19928 | 77.72107 | 2973 ft | 2 kts | 346° |
| 2026-05-08 12:18 | 13.19917 | 77.72108 | 2973 ft | 1 kts | 1° |
| 2026-05-08 12:18 | 13.19916 | 77.72108 | 2973 ft | 0 kts | 1° |
| 2026-05-08 12:21 | 13.19921 | 77.72108 | 2973 ft | 2 kts | 1° |
| 2026-05-08 12:21 | 13.19969 | 77.72109 | 2973 ft | 12 kts | 1° |
| 2026-05-08 12:21 | 13.20089 | 77.72110 | 2973 ft | 22 kts | 0° |
| 2026-05-08 12:21 | 13.20257 | 77.72111 | 2973 ft | 24 kts | 0° |
| 2026-05-08 12:22 | 13.20395 | 77.72113 | 2973 ft | 18 kts | 0° |
| 2026-05-08 12:22 | 13.20493 | 77.72104 | 2972 ft | 15 kts | 331° |
| 2026-05-08 12:22 | 13.20519 | 77.72007 | 2973 ft | 15 kts | 276° |
| 2026-05-08 12:22 | 13.20530 | 77.71904 | 2973 ft | 15 kts | 276° |
| 2026-05-08 12:23 | 13.20521 | 77.71802 | 2974 ft | 15 kts | 266° |
| 2026-05-08 12:23 | 13.20519 | 77.71698 | 2974 ft | 15 kts | 270° |
| 2026-05-08 12:23 | 13.20519 | 77.71594 | 2973 ft | 15 kts | 270° |
| 2026-05-08 12:23 | 13.20520 | 77.71490 | 2972 ft | 15 kts | 270° |
| 2026-05-08 12:24 | 13.20520 | 77.71388 | 2971 ft | 15 kts | 270° |
| 2026-05-08 12:24 | 13.20520 | 77.71283 | 2971 ft | 15 kts | 271° |
| 2026-05-08 12:24 | 13.20522 | 77.71175 | 2971 ft | 16 kts | 271° |
| 2026-05-08 12:24 | 13.20524 | 77.71042 | 2970 ft | 23 kts | 271° |
| 2026-05-08 12:25 | 13.20526 | 77.70849 | 2970 ft | 31 kts | 270° |
| 2026-05-08 12:25 | 13.20529 | 77.70606 | 2973 ft | 37 kts | 270° |
| 2026-05-08 12:25 | 13.20531 | 77.70325 | 2975 ft | 41 kts | 271° |
| 2026-05-08 12:25 | 13.20535 | 77.70033 | 2976 ft | 41 kts | 270° |
| 2026-05-08 12:26 | 13.20535 | 77.69741 | 2976 ft | 41 kts | 270° |
| 2026-05-08 12:26 | 13.20538 | 77.69454 | 2972 ft | 40 kts | 270° |
| 2026-05-08 12:26 | 13.20540 | 77.69166 | 2973 ft | 40 kts | 270° |
| 2026-05-08 12:26 | 13.20541 | 77.68878 | 2972 ft | 40 kts | 271° |
| 2026-05-08 12:27 | 13.20548 | 77.68659 | 2976 ft | 22 kts | 283° |
| 2026-05-08 12:27 | 13.20585 | 77.68624 | 2975 ft | 7 kts | 345° |
| 2026-05-08 12:27 | 13.20641 | 77.68622 | 2974 ft | 9 kts | 0° |
| 2026-05-08 12:27 | 13.20706 | 77.68632 | 2973 ft | 8 kts | 39° |
| 2026-05-08 12:28 | 13.20715 | 77.68693 | 2973 ft | 9 kts | 89° |
| 2026-05-08 12:28 | 13.20714 | 77.68836 | 2973 ft | 43 kts | 90° |
| 2026-05-08 12:28 | 13.20711 | 77.69391 | 2974 ft | 112 kts | 90° |
| 2026-05-08 12:28 | 13.20707 | 77.70397 | 2982 ft | 165 kts | 89° |
| 2026-05-08 12:29 | 13.20667 | 77.71633 | 3276 ft | 187 kts | 88° |
| 2026-05-08 12:29 | 13.20644 | 77.73050 | 3662 ft | 208 kts | 89° |
| 2026-05-08 12:29 | 13.20659 | 77.74551 | 4324 ft | 212 kts | 88° |
| 2026-05-08 12:29 | 13.20647 | 77.76095 | 4907 ft | 226 kts | 88° |
| 2026-05-08 12:30 | 13.20632 | 77.77795 | 5330 ft | 244 kts | 89° |
| 2026-05-08 12:30 | 13.20615 | 77.79545 | 6116 ft | 246 kts | 89° |
| 2026-05-08 12:30 | 13.20597 | 77.81333 | 6769 ft | 256 kts | 89° |
| 2026-05-08 12:30 | 13.20582 | 77.83182 | 7513 ft | 260 kts | 88° |
| 2026-05-08 12:31 | 13.20566 | 77.85060 | 8321 ft | 264 kts | 89° |
| 2026-05-08 12:31 | 13.20549 | 77.86936 | 9285 ft | 262 kts | 88° |
| 2026-05-08 12:31 | 13.20645 | 77.88837 | 9817 ft | 270 kts | 73° |
| 2026-05-08 12:31 | 13.21488 | 77.90536 | 10390 ft | 278 kts | 48° |
| 2026-05-08 12:32 | 13.23091 | 77.91746 | 10710 ft | 300 kts | 21° |
| 2026-05-08 12:32 | 13.25241 | 77.92119 | 10856 ft | 331 kts | 2° |
| 2026-05-08 12:32 | 13.27646 | 77.92099 | 10914 ft | 356 kts | 0° |
| 2026-05-08 12:32 | 13.30113 | 77.92077 | 10906 ft | 349 kts | 0° |
| 2026-05-08 12:33 | 13.32471 | 77.91768 | 10920 ft | 343 kts | 344° |
| 2026-05-08 12:33 | 13.34651 | 77.90728 | 10926 ft | 354 kts | 332° |
| 2026-05-08 12:33 | 13.36801 | 77.89435 | 10915 ft | 357 kts | 331° |
| 2026-05-08 12:33 | 13.38927 | 77.88133 | 10916 ft | 356 kts | 331° |
| 2026-05-08 12:34 | 13.41066 | 77.86827 | 10918 ft | 357 kts | 331° |
| 2026-05-08 12:34 | 13.43205 | 77.85533 | 10916 ft | 358 kts | 331° |
| 2026-05-08 12:34 | 13.45350 | 77.84243 | 10910 ft | 355 kts | 332° |
| 2026-05-08 12:34 | 13.47492 | 77.82962 | 10912 ft | 357 kts | 331° |
| 2026-05-08 12:35 | 13.49647 | 77.81675 | 10915 ft | 360 kts | 332° |
| 2026-05-08 12:35 | 13.51801 | 77.80388 | 10908 ft | 356 kts | 332° |
| 2026-05-08 12:35 | 13.53947 | 77.79108 | 10909 ft | 356 kts | 332° |
| 2026-05-08 12:35 | 13.56079 | 77.77828 | 10981 ft | 363 kts | 330° |
| 2026-05-08 12:36 | 13.58246 | 77.76433 | 11697 ft | 370 kts | 329° |
| 2026-05-08 12:36 | 13.60396 | 77.75001 | 12843 ft | 369 kts | 328° |
| 2026-05-08 12:36 | 13.62570 | 77.73542 | 13741 ft | 376 kts | 328° |
| 2026-05-08 12:36 | 13.64780 | 77.72060 | 14450 ft | 383 kts | 328° |
| 2026-05-08 12:37 | 13.67029 | 77.70557 | 15269 ft | 388 kts | 328° |
| 2026-05-08 12:37 | 13.69311 | 77.69035 | 16051 ft | 394 kts | 327° |
| 2026-05-08 12:37 | 13.71628 | 77.67493 | 16791 ft | 400 kts | 327° |
| 2026-05-08 12:37 | 13.73984 | 77.65927 | 17566 ft | 405 kts | 327° |
| 2026-05-08 12:38 | 13.76372 | 77.64341 | 18320 ft | 410 kts | 327° |
| 2026-05-08 12:38 | 13.78778 | 77.62744 | 19032 ft | 413 kts | 327° |
| 2026-05-08 12:38 | 13.80380 | 77.61680 | 19488 ft | 416 kts | 327° |
| 2026-05-08 12:38 | 13.83626 | 77.59525 | 20336 ft | 422 kts | 327° |
| 2026-05-08 12:39 | 13.86106 | 77.57878 | 21030 ft | 425 kts | 327° |
| 2026-05-08 12:39 | 13.88607 | 77.56216 | 21653 ft | 430 kts | 327° |
| 2026-05-08 12:39 | 13.91138 | 77.54534 | 22283 ft | 434 kts | 327° |
| 2026-05-08 12:39 | 13.93689 | 77.52838 | 22878 ft | 439 kts | 327° |
| 2026-05-08 12:40 | 13.95390 | 77.51707 | 23272 ft | 442 kts | 327° |
| 2026-05-08 12:40 | 13.97988 | 77.49979 | 23819 ft | 445 kts | 327° |
| 2026-05-08 12:40 | 14.00605 | 77.48238 | 24299 ft | 450 kts | 327° |
| 2026-05-08 12:40 | 14.03240 | 77.46484 | 24805 ft | 453 kts | 327° |
| 2026-05-08 12:41 | 14.05904 | 77.44711 | 25252 ft | 458 kts | 327° |
| 2026-05-08 12:41 | 14.08594 | 77.42920 | 25726 ft | 461 kts | 327° |
| 2026-05-08 12:41 | 14.11299 | 77.41118 | 26186 ft | 466 kts | 326° |
| 2026-05-08 12:41 | 14.14039 | 77.39293 | 26630 ft | 470 kts | 326° |
| 2026-05-08 12:42 | 14.16799 | 77.37453 | 27066 ft | 474 kts | 326° |
| 2026-05-08 12:42 | 14.19581 | 77.35599 | 27519 ft | 478 kts | 326° |
| 2026-05-08 12:42 | 14.22387 | 77.33729 | 27942 ft | 482 kts | 326° |
| 2026-05-08 12:42 | 14.25212 | 77.31844 | 28347 ft | 486 kts | 326° |
| 2026-05-08 12:43 | 14.28031 | 77.29963 | 28736 ft | 490 kts | 326° |
| 2026-05-08 12:43 | 14.30910 | 77.28042 | 29139 ft | 494 kts | 326° |
| 2026-05-08 12:43 | 14.33804 | 77.26109 | 29534 ft | 497 kts | 326° |
| 2026-05-08 12:43 | 14.36715 | 77.24164 | 29883 ft | 501 kts | 326° |
| 2026-05-08 12:44 | 14.39657 | 77.22200 | 30187 ft | 504 kts | 326° |
| 2026-05-08 12:44 | 14.42608 | 77.20228 | 30491 ft | 507 kts | 326° |
| 2026-05-08 12:44 | 14.45569 | 77.18249 | 30880 ft | 507 kts | 326° |
| 2026-05-08 12:44 | 14.48535 | 77.16266 | 31252 ft | 508 kts | 326° |
| 2026-05-08 12:45 | 14.51502 | 77.14281 | 31746 ft | 505 kts | 326° |
| 2026-05-08 12:45 | 14.54441 | 77.12314 | 32327 ft | 501 kts | 325° |
| 2026-05-08 12:45 | 14.57353 | 77.10365 | 32807 ft | 500 kts | 326° |
| 2026-05-08 12:45 | 14.60294 | 77.08534 | 33222 ft | 501 kts | 333° |
| 2026-05-08 12:46 | 14.63513 | 77.07155 | 33675 ft | 501 kts | 339° |
| 2026-05-08 12:46 | 14.66824 | 77.05976 | 33857 ft | 504 kts | 340° |
| 2026-05-08 12:46 | 14.73509 | 77.03751 | 33836 ft | 503 kts | 340° |
| 2026-05-08 12:47 | 14.80132 | 77.01454 | 33830 ft | 500 kts | 339° |
| 2026-05-08 12:47 | 14.86697 | 76.99072 | 33834 ft | 499 kts | 339° |
| 2026-05-08 12:48 | 14.93188 | 76.96685 | 33832 ft | 498 kts | 339° |
| 2026-05-08 12:48 | 14.99726 | 76.94281 | 33831 ft | 498 kts | 339° |
| 2026-05-08 12:49 | 15.06264 | 76.91883 | 33828 ft | 499 kts | 339° |
| 2026-05-08 12:49 | 15.12812 | 76.89483 | 33827 ft | 499 kts | 339° |
| 2026-05-08 12:50 | 15.19368 | 76.87078 | 33820 ft | 500 kts | 339° |
| 2026-05-08 12:50 | 15.25897 | 76.84680 | 33814 ft | 500 kts | 339° |
| 2026-05-08 12:51 | 15.35729 | 76.81067 | 33817 ft | 500 kts | 339° |
| 2026-05-08 12:52 | 15.42282 | 76.78657 | 33807 ft | 499 kts | 339° |
| 2026-05-08 12:52 | 15.52108 | 76.75040 | 33810 ft | 499 kts | 339° |
| 2026-05-08 12:53 | 15.58643 | 76.72631 | 33818 ft | 498 kts | 339° |
| 2026-05-08 12:53 | 15.65175 | 76.70223 | 33823 ft | 497 kts | 339° |
| 2026-05-08 12:54 | 15.68328 | 76.68819 | 33810 ft | 492 kts | 328° |
| 2026-05-08 12:54 | 15.71033 | 76.66677 | 33819 ft | 489 kts | 311° |
| 2026-05-08 12:54 | 15.75150 | 76.61129 | 33841 ft | 486 kts | 305° |
| 2026-05-08 12:55 | 15.79241 | 76.55546 | 33847 ft | 490 kts | 306° |
| 2026-05-08 12:55 | 15.83434 | 76.49939 | 33850 ft | 492 kts | 307° |
| 2026-05-08 12:56 | 15.87637 | 76.44358 | 33851 ft | 492 kts | 307° |
| 2026-05-08 12:56 | 15.91858 | 76.38760 | 33852 ft | 491 kts | 307° |
| 2026-05-08 12:57 | 15.96057 | 76.33175 | 33857 ft | 489 kts | 307° |
| 2026-05-08 12:57 | 16.00238 | 76.27610 | 33860 ft | 488 kts | 307° |
| 2026-05-08 12:58 | 16.04415 | 76.22041 | 33864 ft | 487 kts | 307° |
| 2026-05-08 12:58 | 16.08575 | 76.16493 | 33862 ft | 486 kts | 307° |
| 2026-05-08 12:59 | 16.12726 | 76.10953 | 33865 ft | 485 kts | 307° |
| 2026-05-08 12:59 | 16.16848 | 76.05445 | 33870 ft | 485 kts | 307° |
| 2026-05-08 13:00 | 16.21014 | 75.99875 | 33872 ft | 486 kts | 307° |
| 2026-05-08 13:00 | 16.25167 | 75.94321 | 33876 ft | 486 kts | 307° |
| 2026-05-08 13:01 | 16.29296 | 75.88792 | 33871 ft | 487 kts | 307° |
| 2026-05-08 13:01 | 16.33455 | 75.83219 | 33880 ft | 487 kts | 307° |
| 2026-05-08 13:02 | 16.37612 | 75.77645 | 33888 ft | 487 kts | 307° |
| 2026-05-08 13:02 | 16.41774 | 75.72060 | 33883 ft | 487 kts | 307° |
| 2026-05-08 13:03 | 16.45928 | 75.66480 | 33883 ft | 487 kts | 307° |
| 2026-05-08 13:03 | 16.50084 | 75.60894 | 33883 ft | 487 kts | 307° |
| 2026-05-08 13:04 | 16.54235 | 75.55309 | 33884 ft | 487 kts | 307° |
| 2026-05-08 13:04 | 16.58386 | 75.49720 | 33886 ft | 487 kts | 307° |
| 2026-05-08 13:05 | 16.62516 | 75.44175 | 33883 ft | 487 kts | 307° |
| 2026-05-08 13:05 | 16.66721 | 75.38626 | 33880 ft | 487 kts | 307° |
| 2026-05-08 13:06 | 16.70931 | 75.33086 | 33882 ft | 487 kts | 307° |
| 2026-05-08 13:06 | 16.75090 | 75.27596 | 33872 ft | 477 kts | 307° |
| 2026-05-08 13:07 | 16.79182 | 75.22182 | 33881 ft | 472 kts | 307° |
| 2026-05-08 13:07 | 16.83214 | 75.16838 | 33881 ft | 471 kts | 307° |
| 2026-05-08 13:08 | 16.87293 | 75.11431 | 33885 ft | 471 kts | 307° |
| 2026-05-08 13:08 | 16.91319 | 75.06088 | 33882 ft | 471 kts | 307° |
| 2026-05-08 13:09 | 16.95381 | 75.00694 | 33880 ft | 472 kts | 307° |
| 2026-05-08 13:09 | 16.99446 | 74.95293 | 33883 ft | 473 kts | 307° |
| 2026-05-08 13:10 | 17.03515 | 74.89882 | 33879 ft | 473 kts | 307° |
| 2026-05-08 13:10 | 17.07576 | 74.84477 | 33873 ft | 473 kts | 307° |
| 2026-05-08 13:11 | 17.11638 | 74.79067 | 33875 ft | 472 kts | 307° |
| 2026-05-08 13:11 | 17.15666 | 74.73698 | 33869 ft | 472 kts | 307° |
| 2026-05-08 13:12 | 17.19716 | 74.68295 | 33865 ft | 471 kts | 307° |
| 2026-05-08 13:12 | 17.23756 | 74.62900 | 33863 ft | 470 kts | 307° |
| 2026-05-08 13:13 | 17.27790 | 74.57511 | 33863 ft | 470 kts | 307° |
| 2026-05-08 13:13 | 17.31792 | 74.52159 | 33853 ft | 469 kts | 307° |
| 2026-05-08 13:14 | 17.35815 | 74.46776 | 33856 ft | 469 kts | 307° |
| 2026-05-08 13:14 | 17.39830 | 74.41398 | 33854 ft | 469 kts | 307° |
| 2026-05-08 13:15 | 17.43849 | 74.36011 | 33854 ft | 469 kts | 307° |
| 2026-05-08 13:15 | 17.47865 | 74.30623 | 33850 ft | 467 kts | 307° |
| 2026-05-08 13:16 | 17.49838 | 74.27975 | 33844 ft | 456 kts | 307° |
| 2026-05-08 13:16 | 17.51766 | 74.25388 | 33832 ft | 444 kts | 307° |
| 2026-05-08 13:16 | 17.53652 | 74.22854 | 33518 ft | 438 kts | 307° |
| 2026-05-08 13:16 | 17.55487 | 74.20388 | 33136 ft | 433 kts | 307° |
| 2026-05-08 13:17 | 17.57334 | 74.17904 | 32693 ft | 429 kts | 307° |
| 2026-05-08 13:17 | 17.59163 | 74.15443 | 32238 ft | 426 kts | 308° |
| 2026-05-08 13:17 | 17.60984 | 74.12993 | 31790 ft | 424 kts | 308° |
| 2026-05-08 13:17 | 17.62787 | 74.10565 | 31345 ft | 421 kts | 308° |
| 2026-05-08 13:18 | 17.64586 | 74.08143 | 30882 ft | 419 kts | 308° |
| 2026-05-08 13:18 | 17.66372 | 74.05737 | 30435 ft | 418 kts | 308° |
| 2026-05-08 13:18 | 17.68157 | 74.03332 | 29970 ft | 416 kts | 309° |
| 2026-05-08 13:18 | 17.69930 | 74.00942 | 29449 ft | 414 kts | 309° |
| 2026-05-08 13:19 | 17.71693 | 73.98565 | 28964 ft | 412 kts | 309° |
| 2026-05-08 13:19 | 17.73428 | 73.96225 | 28492 ft | 409 kts | 309° |
| 2026-05-08 13:19 | 17.75163 | 73.93884 | 28027 ft | 406 kts | 309° |
| 2026-05-08 13:19 | 17.76894 | 73.91548 | 27593 ft | 403 kts | 308° |
| 2026-05-08 13:20 | 17.78610 | 73.89234 | 27137 ft | 401 kts | 308° |
| 2026-05-08 13:20 | 17.80316 | 73.86932 | 26683 ft | 398 kts | 308° |
| 2026-05-08 13:20 | 17.82014 | 73.84641 | 26241 ft | 396 kts | 308° |
| 2026-05-08 13:20 | 17.83698 | 73.82367 | 25792 ft | 394 kts | 308° |
| 2026-05-08 13:21 | 17.85376 | 73.80100 | 25355 ft | 392 kts | 308° |
| 2026-05-08 13:21 | 17.87044 | 73.77844 | 24897 ft | 390 kts | 308° |
| 2026-05-08 13:21 | 17.88710 | 73.75592 | 24452 ft | 389 kts | 308° |
| 2026-05-08 13:21 | 17.90366 | 73.73352 | 24025 ft | 388 kts | 308° |
| 2026-05-08 13:22 | 17.92017 | 73.71119 | 23575 ft | 386 kts | 308° |
| 2026-05-08 13:22 | 17.93644 | 73.68916 | 23089 ft | 385 kts | 308° |
| 2026-05-08 13:22 | 17.95284 | 73.66696 | 22623 ft | 383 kts | 308° |
| 2026-05-08 13:22 | 17.96911 | 73.64491 | 22170 ft | 380 kts | 308° |
| 2026-05-08 13:23 | 17.98524 | 73.62306 | 21741 ft | 378 kts | 308° |
| 2026-05-08 13:23 | 18.00130 | 73.60128 | 21310 ft | 376 kts | 308° |
| 2026-05-08 13:23 | 18.01732 | 73.57957 | 20870 ft | 374 kts | 308° |
| 2026-05-08 13:23 | 18.03322 | 73.55800 | 20454 ft | 372 kts | 308° |
| 2026-05-08 13:24 | 18.04902 | 73.53656 | 20026 ft | 370 kts | 309° |
| 2026-05-08 13:24 | 18.06476 | 73.51519 | 19597 ft | 369 kts | 309° |
| 2026-05-08 13:24 | 18.08044 | 73.49390 | 19160 ft | 369 kts | 309° |
| 2026-05-08 13:24 | 18.09616 | 73.47255 | 18730 ft | 368 kts | 309° |
| 2026-05-08 13:25 | 18.11166 | 73.45149 | 18296 ft | 368 kts | 309° |
| 2026-05-08 13:25 | 18.12733 | 73.43022 | 17824 ft | 368 kts | 309° |
| 2026-05-08 13:25 | 18.14288 | 73.40907 | 17600 ft | 360 kts | 309° |
| 2026-05-08 13:25 | 18.15862 | 73.38934 | 17410 ft | 346 kts | 319° |
| 2026-05-08 13:26 | 18.17849 | 73.37586 | 17026 ft | 337 kts | 338° |
| 2026-05-08 13:26 | 18.19997 | 73.36627 | 16677 ft | 334 kts | 339° |
| 2026-05-08 13:26 | 18.22147 | 73.35698 | 16288 ft | 333 kts | 339° |
| 2026-05-08 13:26 | 18.24293 | 73.34768 | 15914 ft | 332 kts | 339° |
| 2026-05-08 13:27 | 18.26422 | 73.33838 | 15535 ft | 331 kts | 339° |
| 2026-05-08 13:27 | 18.27828 | 73.33221 | 15284 ft | 330 kts | 339° |
| 2026-05-08 13:27 | 18.29944 | 73.32285 | 14915 ft | 329 kts | 339° |
| 2026-05-08 13:27 | 18.32053 | 73.31348 | 14536 ft | 329 kts | 339° |
| 2026-05-08 13:28 | 18.34849 | 73.30101 | 14031 ft | 329 kts | 339° |
| 2026-05-08 13:28 | 18.36247 | 73.29477 | 13770 ft | 329 kts | 339° |
| 2026-05-08 13:28 | 18.38356 | 73.28534 | 13357 ft | 329 kts | 339° |
| 2026-05-08 13:28 | 18.40460 | 73.27593 | 12972 ft | 328 kts | 339° |
| 2026-05-08 13:29 | 18.42557 | 73.26655 | 12573 ft | 327 kts | 339° |
| 2026-05-08 13:29 | 18.44650 | 73.25717 | 12192 ft | 326 kts | 339° |
| 2026-05-08 13:29 | 18.46738 | 73.24782 | 11803 ft | 325 kts | 339° |
| 2026-05-08 13:29 | 18.48811 | 73.23852 | 11436 ft | 324 kts | 339° |
| 2026-05-08 13:30 | 18.50890 | 73.22920 | 11072 ft | 324 kts | 339° |
| 2026-05-08 13:30 | 18.52961 | 73.21990 | 10710 ft | 322 kts | 339° |
| 2026-05-08 13:30 | 18.55019 | 73.21068 | 10382 ft | 320 kts | 339° |
| 2026-05-08 13:30 | 18.57067 | 73.20149 | 10115 ft | 316 kts | 339° |
| 2026-05-08 13:31 | 18.59051 | 73.19258 | 9880 ft | 312 kts | 339° |
| 2026-05-08 13:31 | 18.61039 | 73.18365 | 9623 ft | 302 kts | 339° |
| 2026-05-08 13:31 | 18.62945 | 73.17509 | 9162 ft | 293 kts | 339° |
| 2026-05-08 13:31 | 18.64769 | 73.16690 | 8943 ft | 275 kts | 339° |
| 2026-05-08 13:32 | 18.66481 | 73.15953 | 8772 ft | 255 kts | 347° |
| 2026-05-08 13:32 | 18.68191 | 73.15755 | 8681 ft | 249 kts | 2° |
| 2026-05-08 13:32 | 18.69977 | 73.15737 | 8590 ft | 262 kts | 1° |
| 2026-05-08 13:32 | 18.71756 | 73.15708 | 8440 ft | 257 kts | 1° |
| 2026-05-08 13:33 | 18.73561 | 73.15672 | 8324 ft | 259 kts | 1° |
| 2026-05-08 13:33 | 18.75348 | 73.15633 | 8181 ft | 259 kts | 1° |
| 2026-05-08 13:33 | 18.77141 | 73.15591 | 8072 ft | 256 kts | 1° |
| 2026-05-08 13:33 | 18.78928 | 73.15547 | 7941 ft | 256 kts | 1° |
| 2026-05-08 13:34 | 18.80710 | 73.15503 | 7810 ft | 256 kts | 0° |
| 2026-05-08 13:34 | 18.82482 | 73.15457 | 7635 ft | 253 kts | 0° |
| 2026-05-08 13:34 | 18.84231 | 73.15411 | 7412 ft | 250 kts | 0° |
| 2026-05-08 13:34 | 18.85966 | 73.15366 | 7181 ft | 248 kts | 0° |
| 2026-05-08 13:35 | 18.87686 | 73.15322 | 6900 ft | 247 kts | 0° |
| 2026-05-08 13:35 | 18.89397 | 73.15277 | 6636 ft | 245 kts | 360° |
| 2026-05-08 13:35 | 18.91087 | 73.15232 | 6418 ft | 239 kts | 0° |
| 2026-05-08 13:35 | 18.92724 | 73.15188 | 6250 ft | 232 kts | 359° |
| 2026-05-08 13:36 | 18.94077 | 73.15098 | 5953 ft | 233 kts | 356° |
| 2026-05-08 13:36 | 18.95483 | 73.14965 | 5711 ft | 230 kts | 355° |
| 2026-05-08 13:36 | 18.97074 | 73.14810 | 5353 ft | 232 kts | 355° |
| 2026-05-08 13:36 | 18.98670 | 73.14657 | 5111 ft | 228 kts | 355° |
| 2026-05-08 13:37 | 19.00230 | 73.14512 | 4835 ft | 229 kts | 355° |
| 2026-05-08 13:37 | 19.01852 | 73.14361 | 4632 ft | 234 kts | 354° |
| 2026-05-08 13:37 | 19.03499 | 73.14211 | 4419 ft | 238 kts | 354° |
| 2026-05-08 13:37 | 19.05106 | 73.14063 | 4395 ft | 226 kts | 355° |
| 2026-05-08 13:38 | 19.06652 | 73.13915 | 4288 ft | 220 kts | 352° |
| 2026-05-08 13:38 | 19.07896 | 73.13385 | 4102 ft | 211 kts | 321° |
| 2026-05-08 13:38 | 19.08659 | 73.12078 | 3965 ft | 199 kts | 286° |
| 2026-05-08 13:38 | 19.08868 | 73.10690 | 3828 ft | 187 kts | 280° |
| 2026-05-08 13:39 | 19.09017 | 73.09358 | 3632 ft | 177 kts | 279° |
| 2026-05-08 13:39 | 19.09121 | 73.08054 | 3482 ft | 181 kts | 277° |
| 2026-05-08 13:39 | 19.09153 | 73.06702 | 3332 ft | 185 kts | 274° |
| 2026-05-08 13:39 | 19.09146 | 73.05355 | 3111 ft | 179 kts | 273° |
| 2026-05-08 13:40 | 19.09128 | 73.04097 | 2903 ft | 164 kts | 274° |
| 2026-05-08 13:40 | 19.09112 | 73.02945 | 2697 ft | 150 kts | 275° |
| 2026-05-08 13:40 | 19.09097 | 73.01834 | 2548 ft | 157 kts | 274° |
| 2026-05-08 13:40 | 19.09079 | 73.00691 | 2338 ft | 153 kts | 274° |
| 2026-05-08 13:41 | 19.09062 | 72.99583 | 2129 ft | 148 kts | 274° |
| 2026-05-08 13:41 | 19.09047 | 72.98492 | 1947 ft | 151 kts | 274° |
| 2026-05-08 13:41 | 19.09031 | 72.97368 | 1766 ft | 153 kts | 273° |
| 2026-05-08 13:41 | 19.09015 | 72.96257 | 1575 ft | 148 kts | 273° |
| 2026-05-08 13:42 | 19.08998 | 72.95189 | 1373 ft | 144 kts | 273° |
| 2026-05-08 13:42 | 19.08983 | 72.94122 | 1207 ft | 146 kts | 272° |
| 2026-05-08 13:42 | 19.08963 | 72.93044 | 1011 ft | 146 kts | 272° |
| 2026-05-08 13:42 | 19.08939 | 72.91984 | 818 ft | 141 kts | 271° |
| 2026-05-08 13:43 | 19.08942 | 72.90940 | 719 ft | 142 kts | 271° |
| 2026-05-08 13:43 | 19.08921 | 72.89893 | 504 ft | 143 kts | 269° |
| 2026-05-08 13:43 | 19.08890 | 72.88865 | 345 ft | 140 kts | 273° |
| 2026-05-08 13:43 | 19.08880 | 72.87804 | 142 ft | 144 kts | 273° |
| 2026-05-08 13:44 | 19.08876 | 72.86790 | 53 ft | 125 kts | 268° |
| 2026-05-08 13:44 | 19.08865 | 72.86095 | 48 ft | 66 kts | 268° |
| 2026-05-08 13:44 | 19.08865 | 72.85742 | 52 ft | 43 kts | 280° |
| 2026-05-08 13:44 | 19.08936 | 72.85523 | 49 ft | 20 kts | 294° |
| 2026-05-08 13:45 | 19.08999 | 72.85479 | 46 ft | 8 kts | 37° |
| 2026-05-08 13:45 | 19.09023 | 72.85549 | 49 ft | 12 kts | 81° |
| 2026-05-08 13:45 | 19.09027 | 72.85651 | 54 ft | 16 kts | 89° |
| 2026-05-08 13:45 | 19.09029 | 72.85786 | 54 ft | 21 kts | 89° |
| 2026-05-08 13:46 | 19.09032 | 72.85954 | 53 ft | 25 kts | 90° |
| 2026-05-08 13:46 | 19.09034 | 72.86158 | 53 ft | 30 kts | 90° |
| 2026-05-08 13:46 | 19.09037 | 72.86391 | 54 ft | 34 kts | 89° |
| 2026-05-08 13:46 | 19.09041 | 72.86650 | 48 ft | 37 kts | 89° |
| 2026-05-08 13:47 | 19.09043 | 72.86854 | 53 ft | 22 kts | 88° |
| 2026-05-08 13:47 | 19.09047 | 72.87029 | 51 ft | 26 kts | 88° |
| 2026-05-08 13:47 | 19.09054 | 72.87225 | 49 ft | 22 kts | 76° |
| 2026-05-08 13:47 | 19.09145 | 72.87263 | 48 ft | 15 kts | 1° |
| 2026-05-08 13:48 | 19.09248 | 72.87239 | 47 ft | 15 kts | 338° |
| 2026-05-08 13:48 | 19.09309 | 72.87212 | 50 ft | 0 kts | 338° |
| 2026-05-08 13:48 | 19.09311 | 72.87211 | 51 ft | 0 kts | 338° |